createdAt,value
2022-10-22T00:01:00.113Z,16.26
2022-10-22T00:03:26.586Z,16.27
2022-10-22T00:05:53.005Z,16.26
2022-10-22T00:08:19.456Z,16.26
2022-10-22T00:10:45.892Z,16.23
2022-10-22T00:13:14.330Z,16.24
2022-10-22T00:15:40.756Z,16.22
2022-10-22T00:18:07.306Z,16.29
2022-10-22T00:20:33.837Z,16.27
2022-10-22T00:23:00.237Z,16.27
2022-10-22T00:25:26.828Z,16.29
2022-10-22T00:27:53.365Z,16.24
2022-10-22T00:30:19.859Z,16.17
2022-10-22T00:32:46.298Z,16.21
2022-10-22T00:35:12.802Z,16.13
2022-10-22T00:37:39.382Z,16.06
2022-10-22T00:40:06.289Z,16.07
2022-10-22T00:42:32.721Z,16.15
2022-10-22T00:45:11.395Z,16.12
2022-10-22T00:48:08.797Z,16.21
2022-10-22T00:50:45.555Z,16.16
2022-10-22T00:53:18.891Z,16.12
2022-10-22T00:55:47.616Z,16.05
2022-10-22T00:58:14.911Z,16.13
2022-10-22T01:00:41.713Z,16.17
2022-10-22T01:03:08.459Z,16.29
2022-10-22T01:05:51.064Z,16.36
2022-10-22T01:08:52.029Z,16.36
2022-10-22T01:11:27.875Z,16.32
2022-10-22T01:14:04.841Z,16.31
2022-10-22T01:16:40.213Z,16.36
2022-10-22T01:19:34.652Z,16.34
2022-10-22T01:22:11.102Z,16.24
2022-10-22T01:24:48.670Z,16.20
2022-10-22T01:27:44.715Z,16.21
2022-10-22T01:30:13.870Z,16.16
2022-10-22T01:32:48.762Z,16.19
2022-10-22T01:35:19.530Z,16.15
2022-10-22T01:37:50.781Z,16.19
2022-10-22T01:40:18.201Z,16.22
2022-10-22T01:42:58.472Z,16.17
2022-10-22T01:45:25.358Z,16.19
2022-10-22T01:48:12.149Z,16.18
2022-10-22T01:50:53.429Z,16.14
2022-10-22T01:53:46.629Z,16.14
2022-10-22T01:56:17.331Z,16.14
2022-10-22T01:58:59.367Z,16.16
2022-10-22T02:01:44.562Z,16.22
2022-10-22T02:04:20.703Z,16.29
2022-10-22T02:06:50.034Z,16.34
2022-10-22T02:09:20.032Z,16.40
2022-10-22T02:11:47.671Z,16.43
2022-10-22T02:14:16.051Z,16.31
2022-10-22T02:16:47.814Z,16.21
2022-10-22T02:19:19.072Z,16.14
2022-10-22T02:21:45.830Z,16.12
2022-10-22T02:24:12.434Z,16.05
2022-10-22T02:26:43.686Z,16.03
2022-10-22T02:29:15.221Z,16.00
2022-10-22T02:31:44.638Z,15.98
2022-10-22T02:34:17.336Z,16.02
2022-10-22T02:36:48.056Z,15.99
2022-10-22T02:39:19.131Z,16.07
2022-10-22T02:41:45.650Z,16.11
2022-10-22T02:44:12.080Z,16.11
2022-10-22T02:46:40.070Z,16.08
2022-10-22T02:49:06.967Z,16.03
2022-10-22T02:51:33.385Z,15.95
2022-10-22T02:53:59.790Z,16.02
2022-10-22T02:56:26.478Z,15.96
2022-10-22T02:58:52.921Z,15.87
2022-10-22T03:01:19.371Z,15.93
2022-10-22T03:03:45.847Z,15.95
2022-10-22T03:06:12.481Z,16.03
2022-10-22T03:08:38.913Z,16.03
2022-10-22T03:11:05.454Z,15.97
2022-10-22T03:13:31.881Z,15.95
2022-10-22T03:15:58.349Z,15.93
2022-10-22T03:18:24.830Z,15.86
2022-10-22T03:20:59.436Z,15.83
2022-10-22T03:23:25.913Z,15.85
2022-10-22T03:25:52.465Z,15.88
2022-10-22T03:28:18.974Z,15.85
2022-10-22T03:30:45.432Z,15.85
2022-10-22T03:33:11.845Z,15.92
2022-10-22T03:35:44.070Z,15.91
2022-10-22T03:38:10.996Z,15.92
2022-10-22T03:40:37.724Z,15.99
2022-10-22T03:43:04.203Z,15.96
2022-10-22T03:45:30.786Z,15.90
2022-10-22T03:47:57.988Z,15.86
2022-10-22T03:50:24.406Z,15.83
2022-10-22T03:52:50.845Z,15.87
2022-10-22T03:55:17.385Z,15.76
2022-10-22T03:57:43.802Z,15.73
2022-10-22T04:00:10.681Z,15.84
2022-10-22T04:02:37.215Z,15.83
2022-10-22T04:05:03.939Z,15.92
2022-10-22T04:07:30.499Z,15.91
2022-10-22T04:09:56.948Z,15.90
2022-10-22T04:12:23.430Z,15.87
2022-10-22T04:14:49.919Z,15.81
2022-10-22T04:17:16.413Z,15.78
2022-10-22T04:19:42.842Z,15.79
2022-10-22T04:22:09.248Z,15.80
2022-10-22T04:24:35.715Z,15.80
2022-10-22T04:27:02.132Z,15.83
2022-10-22T04:29:28.548Z,15.87
2022-10-22T04:31:54.986Z,15.82
2022-10-22T04:34:21.500Z,15.81
2022-10-22T04:36:48.011Z,15.77
2022-10-22T04:39:14.666Z,15.76
2022-10-22T04:41:41.109Z,15.79
2022-10-22T04:44:11.090Z,15.89
2022-10-22T04:46:42.470Z,15.94
2022-10-22T04:49:08.981Z,15.91
2022-10-22T04:51:35.439Z,15.90
2022-10-22T04:54:01.943Z,15.83
2022-10-22T04:56:30.271Z,15.85
2022-10-22T04:58:59.748Z,15.80
2022-10-22T05:01:28.920Z,15.82
2022-10-22T05:03:57.661Z,15.81
2022-10-22T05:06:24.896Z,15.83
2022-10-22T05:09:00.143Z,15.89
2022-10-22T05:11:29.710Z,15.91
2022-10-22T05:13:57.515Z,15.86
2022-10-22T05:16:24.934Z,15.83
2022-10-22T05:18:51.369Z,15.86
2022-10-22T05:21:19.824Z,15.96
2022-10-22T05:23:48.285Z,15.96
2022-10-22T05:26:18.639Z,15.92
2022-10-22T05:28:45.621Z,15.91
2022-10-22T05:31:13.666Z,15.90
2022-10-22T05:33:40.882Z,15.89
2022-10-22T05:36:09.083Z,15.90
2022-10-22T05:38:35.763Z,15.87
2022-10-22T05:41:04.652Z,15.87
2022-10-22T05:43:31.328Z,15.90
2022-10-22T05:46:05.188Z,15.95
2022-10-22T05:51:05.450Z,15.88
2022-10-22T05:53:33.410Z,15.87
2022-10-22T05:56:05.893Z,15.87
2022-10-22T05:58:32.998Z,15.86
2022-10-22T06:01:09.083Z,15.94
2022-10-22T06:03:35.513Z,16.09
2022-10-22T06:06:17.234Z,16.37
2022-10-22T06:08:51.568Z,16.51
2022-10-22T06:11:24.093Z,16.75
2022-10-22T06:13:51.380Z,16.89
2022-10-22T06:16:17.937Z,16.87
2022-10-22T06:18:44.439Z,16.85
2022-10-22T06:21:13.811Z,16.90
2022-10-22T06:23:41.245Z,17.01
2022-10-22T06:26:08.679Z,17.02
2022-10-22T06:28:36.087Z,17.09
2022-10-22T06:31:03.640Z,17.11
2022-10-22T06:33:32.384Z,17.15
2022-10-22T06:36:14.207Z,17.07
2022-10-22T06:38:41.051Z,17.08
2022-10-22T06:41:11.086Z,17.18
2022-10-22T06:43:37.665Z,17.16
2022-10-22T06:46:07.428Z,17.26
2022-10-22T06:48:36.009Z,17.25
2022-10-22T06:51:04.007Z,17.25
2022-10-22T06:53:31.180Z,17.31
2022-10-22T06:55:57.903Z,17.30
2022-10-22T06:58:24.396Z,17.33
2022-10-22T07:01:01.057Z,17.43
2022-10-22T07:03:27.500Z,17.56
2022-10-22T07:05:53.970Z,17.50
2022-10-22T07:08:20.376Z,17.47
2022-10-22T07:10:46.791Z,17.37
2022-10-22T07:13:13.215Z,17.36
2022-10-22T07:15:39.617Z,17.37
2022-10-22T07:18:06.058Z,17.35
2022-10-22T07:20:32.477Z,17.34
2022-10-22T07:22:58.930Z,17.33
2022-10-22T07:25:25.416Z,17.31
2022-10-22T07:27:52.455Z,17.34
2022-10-22T07:30:18.985Z,17.33
2022-10-22T07:32:45.392Z,17.40
2022-10-22T07:35:11.850Z,17.48
2022-10-22T07:37:38.511Z,17.57
2022-10-22T07:40:05.567Z,17.54
2022-10-22T07:42:31.985Z,17.61
2022-10-22T07:44:58.375Z,17.63
2022-10-22T07:47:24.946Z,17.61
2022-10-22T07:49:51.350Z,17.53
2022-10-22T07:52:17.812Z,17.52
2022-10-22T07:54:44.221Z,17.59
2022-10-22T07:57:10.686Z,17.62
2022-10-22T07:59:37.091Z,17.63
2022-10-22T08:02:03.665Z,17.59
2022-10-22T08:04:30.043Z,17.63
2022-10-22T08:06:56.450Z,17.71
2022-10-22T08:09:22.969Z,17.80
2022-10-22T08:11:49.541Z,17.88
2022-10-22T08:14:16.229Z,17.87
2022-10-22T08:16:42.684Z,17.83
2022-10-22T08:19:09.142Z,17.79
2022-10-22T08:21:35.567Z,17.80
2022-10-22T08:24:02.000Z,17.86
2022-10-22T08:26:28.483Z,17.95
2022-10-22T08:28:54.876Z,17.98
2022-10-22T08:31:21.310Z,17.98
2022-10-22T08:33:48.176Z,17.99
2022-10-22T08:36:14.569Z,18.02
2022-10-22T08:38:41.028Z,17.96
2022-10-22T08:41:15.802Z,17.95
2022-10-22T08:44:00.662Z,17.97
2022-10-22T08:46:52.596Z,17.97
2022-10-22T08:49:29.620Z,18.04
2022-10-22T08:51:58.232Z,18.00
2022-10-22T08:54:58.763Z,18.01
2022-10-22T08:57:51.343Z,17.99
2022-10-22T09:00:28.655Z,17.97
2022-10-22T09:03:20.541Z,17.96
2022-10-22T09:05:47.037Z,17.95
2022-10-22T09:08:16.086Z,17.96
2022-10-22T09:10:48.100Z,17.99
2022-10-22T09:13:19.718Z,18.04
2022-10-22T09:15:51.171Z,18.02
2022-10-22T09:18:35.187Z,18.03
2022-10-22T09:21:14.357Z,18.02
2022-10-22T09:23:43.922Z,18.02
2022-10-22T09:26:15.541Z,18.02
2022-10-22T09:28:42.791Z,18.05
2022-10-22T09:31:13.768Z,18.04
2022-10-22T09:33:42.464Z,18.06
2022-10-22T09:36:15.781Z,18.08
2022-10-22T09:38:47.882Z,18.10
2022-10-22T09:41:15.043Z,18.13
2022-10-22T09:43:41.445Z,18.14
2022-10-22T09:46:21.286Z,18.16
2022-10-22T09:48:51.698Z,18.17
2022-10-22T09:51:51.118Z,18.16
2022-10-22T09:54:39.537Z,18.18
2022-10-22T09:57:17.555Z,18.21
2022-10-22T09:59:48.003Z,18.28
2022-10-22T10:02:33.556Z,18.29
2022-10-22T10:05:04.813Z,18.35
2022-10-22T10:07:32.749Z,18.33
2022-10-22T10:09:59.505Z,18.33
2022-10-22T10:15:24.896Z,18.37
2022-10-22T10:18:00.999Z,18.40
2022-10-22T10:20:47.617Z,18.43
2022-10-22T10:23:26.225Z,18.45
2022-10-22T10:26:08.551Z,18.49
2022-10-22T10:28:37.755Z,18.49
2022-10-22T10:31:34.446Z,18.51
2022-10-22T10:34:28.749Z,18.51
2022-10-22T10:37:32.799Z,18.52
2022-10-22T10:40:28.708Z,18.54
2022-10-22T10:43:13.613Z,18.53
2022-10-22T10:48:52.819Z,18.55
2022-10-22T10:51:57.463Z,18.56
2022-10-22T10:54:45.505Z,18.56
2022-10-22T10:57:48.987Z,18.55
2022-10-22T11:00:20.162Z,18.57
2022-10-22T11:02:58.670Z,18.58
2022-10-22T11:05:37.592Z,18.58
2022-10-22T11:08:20.882Z,18.58
2022-10-22T11:13:53.215Z,18.61
2022-10-22T11:16:36.840Z,18.62
2022-10-22T11:19:15.508Z,18.63
2022-10-22T11:22:26.778Z,18.63
2022-10-22T11:25:05.794Z,18.64
2022-10-22T11:27:53.473Z,18.65
2022-10-22T11:30:22.851Z,18.65
2022-10-22T11:32:56.129Z,18.65
2022-10-22T11:35:26.766Z,18.64
2022-10-22T11:37:56.156Z,18.64
2022-10-22T11:40:28.353Z,18.63
2022-10-22T11:43:06.872Z,18.65
2022-10-22T11:45:38.622Z,18.64
2022-10-22T11:48:11.102Z,18.65
2022-10-22T11:51:00.376Z,18.65
2022-10-22T11:53:35.433Z,18.70
2022-10-22T11:56:24.269Z,18.72
2022-10-22T11:58:53.965Z,18.71
2022-10-22T12:01:24.518Z,18.72
2022-10-22T12:04:14.087Z,18.73
2022-10-22T12:07:01.473Z,18.72
2022-10-22T12:09:32.322Z,18.71
2022-10-22T12:12:10.563Z,18.72
2022-10-22T12:14:55.095Z,18.83
2022-10-22T12:17:22.342Z,18.99
2022-10-22T12:19:50.813Z,19.00
2022-10-22T12:22:21.479Z,18.95
2022-10-22T12:24:57.190Z,18.89
2022-10-22T12:27:30.072Z,18.86
2022-10-22T12:29:58.593Z,18.83
2022-10-22T12:32:35.250Z,18.80
2022-10-22T12:35:07.065Z,18.78
2022-10-22T12:37:37.021Z,18.77
2022-10-22T12:40:26.306Z,18.76
2022-10-22T12:42:56.037Z,18.76
2022-10-22T12:45:23.628Z,18.76
2022-10-22T12:47:55.446Z,18.76
2022-10-22T12:50:30.645Z,18.76
2022-10-22T12:52:57.085Z,18.76
2022-10-22T12:55:26.193Z,18.75
2022-10-22T12:57:53.118Z,18.77
2022-10-22T13:00:20.771Z,18.75
2022-10-22T13:02:47.712Z,18.74
2022-10-22T13:05:21.293Z,18.75
2022-10-22T13:07:53.962Z,18.75
2022-10-22T13:10:32.000Z,18.75
2022-10-22T13:12:59.149Z,18.76
2022-10-22T13:15:28.333Z,18.76
2022-10-22T13:18:25.120Z,18.76
2022-10-22T13:20:57.553Z,18.75
2022-10-22T13:23:26.563Z,18.74
2022-10-22T13:26:14.086Z,18.74
2022-10-22T13:28:41.453Z,18.73
2022-10-22T13:31:24.700Z,18.73
2022-10-22T13:33:56.103Z,18.73
2022-10-22T13:36:23.736Z,18.73
2022-10-22T13:38:50.581Z,18.74
2022-10-22T13:41:27.638Z,18.74
2022-10-22T13:43:55.306Z,18.74
2022-10-22T13:46:23.029Z,18.75
2022-10-22T13:48:52.543Z,18.75
2022-10-22T13:51:24.926Z,18.76
2022-10-22T13:53:53.376Z,18.76
2022-10-22T13:56:21.789Z,18.77
2022-10-22T13:58:48.664Z,18.76
2022-10-22T14:01:27.329Z,18.75
2022-10-22T14:03:57.946Z,18.76
2022-10-22T14:06:28.783Z,18.76
2022-10-22T14:09:03.716Z,18.76
2022-10-22T14:11:32.587Z,18.75
2022-10-22T14:13:59.114Z,18.78
2022-10-22T14:16:28.580Z,18.76
2022-10-22T14:18:55.899Z,18.75
2022-10-22T14:21:22.732Z,18.73
2022-10-22T14:23:51.687Z,18.73
2022-10-22T14:26:32.033Z,18.74
2022-10-22T14:29:15.148Z,18.73
2022-10-22T14:31:44.339Z,18.74
2022-10-22T14:34:13.596Z,18.74
2022-10-22T14:36:40.235Z,18.73
2022-10-22T14:39:06.774Z,18.73
2022-10-22T14:41:33.362Z,18.73
2022-10-22T14:44:00.097Z,18.72
2022-10-22T14:46:26.592Z,18.73
2022-10-22T14:48:53.090Z,18.73
2022-10-22T14:51:21.082Z,18.73
2022-10-22T14:53:48.092Z,18.72
2022-10-22T14:56:16.787Z,18.80
2022-10-22T14:58:43.731Z,18.75
2022-10-22T15:01:10.225Z,18.74
2022-10-22T15:03:36.985Z,18.73
2022-10-22T15:06:04.548Z,18.77
2022-10-22T15:08:31.222Z,18.76
2022-10-22T15:11:06.302Z,18.74
2022-10-22T15:13:33.547Z,18.81
2022-10-22T15:16:00.457Z,18.80
2022-10-22T15:18:28.025Z,18.83
2022-10-22T15:20:56.199Z,18.83
2022-10-22T15:23:22.704Z,18.77
2022-10-22T15:25:49.125Z,18.76
2022-10-22T15:28:18.059Z,18.74
2022-10-22T15:30:44.467Z,18.74
2022-10-22T15:33:11.048Z,18.73
2022-10-22T15:35:37.453Z,18.73
2022-10-22T15:38:06.565Z,18.73
2022-10-22T15:40:33.042Z,18.74
2022-10-22T15:42:59.438Z,18.73
2022-10-22T15:45:25.967Z,18.73
2022-10-22T15:47:52.360Z,18.74
2022-10-22T15:50:18.853Z,18.73
2022-10-22T15:52:45.356Z,18.72
2022-10-22T15:57:43.494Z,18.71
2022-10-22T16:00:10.879Z,18.72
2022-10-22T16:02:37.295Z,18.71
2022-10-22T16:05:03.887Z,18.74
2022-10-22T16:07:30.690Z,18.74
2022-10-22T16:09:58.793Z,18.74
2022-10-22T16:12:25.450Z,18.71
2022-10-22T16:14:52.046Z,18.69
2022-10-22T16:17:18.710Z,18.72
2022-10-22T16:19:45.164Z,18.72
2022-10-22T16:22:13.793Z,18.71
2022-10-22T16:24:42.923Z,18.69
2022-10-22T16:27:10.285Z,18.70
2022-10-22T16:29:38.935Z,18.70
2022-10-22T16:32:05.700Z,18.70
2022-10-22T16:34:32.146Z,18.70
2022-10-22T16:36:58.690Z,18.71
2022-10-22T16:39:25.229Z,18.68
2022-10-22T16:41:51.815Z,18.65
2022-10-22T16:44:21.333Z,18.65
2022-10-22T16:46:47.802Z,18.65
2022-10-22T16:49:14.250Z,18.63
2022-10-22T16:51:40.693Z,18.58
2022-10-22T16:54:09.855Z,18.52
2022-10-22T16:56:38.709Z,18.51
2022-10-22T16:59:06.165Z,18.50
2022-10-22T17:01:35.682Z,18.50
2022-10-22T17:04:04.468Z,18.51
2022-10-22T17:06:30.961Z,18.55
2022-10-22T17:08:57.538Z,18.51
2022-10-22T17:11:24.860Z,18.47
2022-10-22T17:13:53.900Z,18.46
2022-10-22T17:16:22.846Z,18.53
2022-10-22T17:18:49.535Z,18.61
2022-10-22T17:21:16.745Z,18.39
2022-10-22T17:23:43.180Z,18.12
2022-10-22T17:26:15.609Z,17.99
2022-10-22T17:28:42.050Z,17.94
2022-10-22T17:31:15.081Z,17.79
2022-10-22T17:33:41.500Z,17.76
2022-10-22T17:36:10.863Z,17.92
2022-10-22T17:38:38.802Z,18.03
2022-10-22T17:41:06.954Z,18.18
2022-10-22T17:43:36.815Z,18.33
2022-10-22T17:46:07.879Z,18.42
2022-10-22T17:48:34.771Z,18.45
2022-10-22T17:51:01.236Z,18.43
2022-10-22T17:53:27.884Z,18.45
2022-10-22T17:56:01.856Z,18.50
2022-10-22T17:58:30.437Z,18.51
2022-10-22T18:00:57.977Z,18.52
2022-10-22T18:03:25.051Z,18.54
2022-10-22T18:05:51.459Z,18.54
2022-10-22T18:08:17.882Z,18.53
2022-10-22T18:10:44.409Z,18.53
2022-10-22T18:13:10.890Z,18.53
2022-10-22T18:15:37.377Z,18.52
2022-10-22T18:18:04.032Z,18.51
2022-10-22T18:20:31.026Z,18.43
2022-10-22T18:22:57.454Z,18.35
2022-10-22T18:25:24.006Z,18.32
2022-10-22T18:27:50.492Z,18.36
2022-10-22T18:30:16.932Z,18.42
2022-10-22T18:32:43.321Z,18.44
2022-10-22T18:35:09.729Z,18.46
2022-10-22T18:37:36.488Z,18.49
2022-10-22T18:40:05.228Z,18.49
2022-10-22T18:42:33.633Z,18.49
2022-10-22T18:45:01.963Z,18.48
2022-10-22T18:47:28.402Z,18.46
2022-10-22T18:49:54.809Z,18.46
2022-10-22T18:52:21.294Z,18.46
2022-10-22T18:54:47.705Z,18.45
2022-10-22T18:57:14.169Z,18.44
2022-10-22T18:59:40.643Z,18.45
2022-10-22T19:02:08.937Z,18.40
2022-10-22T19:04:37.098Z,18.23
2022-10-22T19:07:07.321Z,18.28
2022-10-22T19:09:34.579Z,18.30
2022-10-22T19:12:01.110Z,18.33
2022-10-22T19:14:27.614Z,18.38
2022-10-22T19:16:54.098Z,18.39
2022-10-22T19:19:21.898Z,18.36
2022-10-22T19:21:49.093Z,18.33
2022-10-22T19:24:16.892Z,18.34
2022-10-22T19:26:43.800Z,18.35
2022-10-22T19:29:11.029Z,18.37
2022-10-22T19:31:38.256Z,18.38
2022-10-22T19:34:05.047Z,18.38
2022-10-22T19:36:32.703Z,18.38
2022-10-22T19:39:00.135Z,18.38
2022-10-22T19:41:28.934Z,18.37
2022-10-22T19:43:56.519Z,18.35
2022-10-22T19:46:25.617Z,18.35
2022-10-22T19:48:52.836Z,18.17
2022-10-22T19:51:21.533Z,18.03
2022-10-22T19:53:49.059Z,17.97
2022-10-22T19:56:20.541Z,17.90
2022-10-22T19:58:47.194Z,17.92
2022-10-22T20:01:16.698Z,17.93
2022-10-22T20:03:43.598Z,17.90
2022-10-22T20:06:11.813Z,17.87
2022-10-22T20:08:38.802Z,17.86
2022-10-22T20:11:07.414Z,17.88
2022-10-22T20:13:35.240Z,17.86
2022-10-22T20:16:01.830Z,17.87
2022-10-22T20:18:28.535Z,17.90
2022-10-22T20:20:55.173Z,17.91
2022-10-22T20:23:21.696Z,17.92
2022-10-22T20:25:48.224Z,17.89
2022-10-22T20:28:15.474Z,17.84
2022-10-22T20:30:45.852Z,17.78
2022-10-22T20:33:13.104Z,17.79
2022-10-22T20:35:39.680Z,17.82
2022-10-22T20:38:08.051Z,17.86
2022-10-22T20:40:34.817Z,17.87
2022-10-22T20:43:01.917Z,17.82
2022-10-22T20:45:28.972Z,17.79
2022-10-22T20:48:02.614Z,17.83
2022-10-22T20:50:32.018Z,17.83
2022-10-22T20:52:59.099Z,17.77
2022-10-22T20:55:26.040Z,17.75
2022-10-22T20:57:52.467Z,17.77
2022-10-22T21:00:18.951Z,17.80
2022-10-22T21:02:45.465Z,17.79
2022-10-22T21:05:11.969Z,17.83
2022-10-22T21:07:38.763Z,17.83
2022-10-22T21:10:05.931Z,17.82
2022-10-22T21:12:32.368Z,17.76
2022-10-22T21:14:58.810Z,17.76
2022-10-22T21:17:25.190Z,17.74
2022-10-22T21:19:51.754Z,17.73
2022-10-22T21:22:18.182Z,17.76
2022-10-22T21:24:44.598Z,17.79
2022-10-22T21:27:11.014Z,17.80
2022-10-22T21:29:37.548Z,17.76
2022-10-22T21:32:04.115Z,17.69
2022-10-22T21:34:33.254Z,17.67
2022-10-22T21:37:01.826Z,17.64
2022-10-22T21:39:28.841Z,17.67
2022-10-22T21:41:55.237Z,17.58
2022-10-22T21:44:21.650Z,17.52
2022-10-22T21:46:48.050Z,17.58
2022-10-22T21:49:14.639Z,17.60
2022-10-22T21:51:43.110Z,17.61
2022-10-22T21:54:09.545Z,17.63
2022-10-22T21:56:36.435Z,17.65
2022-10-22T21:59:03.881Z,17.65
2022-10-22T22:01:30.654Z,17.61
2022-10-22T22:03:57.226Z,17.62
2022-10-22T22:06:28.354Z,17.59
2022-10-22T22:08:57.750Z,17.59
2022-10-22T22:11:25.919Z,17.58
2022-10-22T22:13:53.917Z,17.48
2022-10-22T22:16:29.506Z,17.47
2022-10-22T22:18:58.444Z,17.55
2022-10-22T22:21:25.062Z,17.54
2022-10-22T22:23:51.765Z,17.48
2022-10-22T22:26:25.278Z,17.40
2022-10-22T22:28:55.071Z,17.42
2022-10-22T22:31:33.030Z,17.44
2022-10-22T22:34:08.375Z,17.40
2022-10-22T22:36:37.482Z,17.38
2022-10-22T22:39:06.032Z,17.33
2022-10-22T22:41:32.843Z,17.26
2022-10-22T22:43:59.467Z,17.33
2022-10-22T22:46:26.017Z,17.31
2022-10-22T22:48:52.504Z,17.27
2022-10-22T22:51:18.971Z,17.21
2022-10-22T22:53:45.802Z,17.24
2022-10-22T22:56:18.256Z,17.36
2022-10-22T22:58:45.166Z,17.40
2022-10-22T23:01:30.503Z,17.36
2022-10-22T23:03:59.390Z,17.30
2022-10-22T23:06:36.137Z,17.26
2022-10-22T23:09:04.545Z,17.32
2022-10-22T23:11:31.136Z,17.37
2022-10-22T23:14:00.107Z,17.34
2022-10-22T23:16:30.193Z,17.28
2022-10-22T23:18:58.242Z,17.29
2022-10-22T23:21:29.604Z,17.20
2022-10-22T23:23:59.111Z,17.28
2022-10-22T23:26:34.354Z,17.37
2022-10-22T23:29:02.555Z,17.43
2022-10-22T23:31:29.346Z,17.46
2022-10-22T23:33:55.774Z,17.34
2022-10-22T23:36:22.193Z,17.08
2022-10-22T23:38:50.257Z,16.91
2022-10-22T23:41:17.315Z,16.75
2022-10-22T23:43:43.798Z,16.67
2022-10-22T23:46:11.838Z,16.48
2022-10-22T23:48:41.623Z,16.54
2022-10-22T23:51:14.283Z,16.89
2022-10-22T23:53:41.829Z,17.13
2022-10-22T23:56:14.159Z,17.23
2022-10-22T23:58:41.023Z,17.29
